createdAt,value
2022-08-19T00:00:44.807Z,67.09
2022-08-19T00:01:52.709Z,66.94
2022-08-19T00:02:55.100Z,66.91
2022-08-19T00:03:59.652Z,66.87
2022-08-19T00:05:04.281Z,66.83
2022-08-19T00:06:07.603Z,66.83
2022-08-19T00:07:10.678Z,66.85
2022-08-19T00:08:13.760Z,66.93
2022-08-19T00:09:19.247Z,67.03
2022-08-19T00:10:23.055Z,66.97
2022-08-19T00:11:27.876Z,66.92
2022-08-19T00:12:31.003Z,66.83
2022-08-19T00:13:34.332Z,66.80
2022-08-19T00:14:38.521Z,66.80
2022-08-19T00:15:43.298Z,66.60
2022-08-19T00:16:48.097Z,66.53
2022-08-19T00:17:51.226Z,66.66
2022-08-19T00:18:55.700Z,66.66
2022-08-19T00:19:58.909Z,66.42
2022-08-19T00:21:02.629Z,66.15
2022-08-19T00:22:06.137Z,66.10
2022-08-19T00:23:09.930Z,66.08
2022-08-19T00:24:15.434Z,66.09
2022-08-19T00:25:18.950Z,66.06
2022-08-19T00:26:25.833Z,66.07
2022-08-19T00:27:28.939Z,66.08
2022-08-19T00:28:33.336Z,66.03
2022-08-19T00:29:38.587Z,65.94
2022-08-19T00:30:41.783Z,65.95
2022-08-19T00:31:45.487Z,66.05
2022-08-19T00:32:49.096Z,66.00
2022-08-19T00:33:52.289Z,66.09
2022-08-19T00:34:55.670Z,66.29
2022-08-19T00:36:00.198Z,66.34
2022-08-19T00:37:03.440Z,66.25
2022-08-19T00:38:07.129Z,66.31
2022-08-19T00:39:11.145Z,66.31
2022-08-19T00:40:15.936Z,66.33
2022-08-19T00:41:21.842Z,66.34
2022-08-19T00:42:26.782Z,66.41
2022-08-19T00:43:29.926Z,66.39
2022-08-19T00:44:33.075Z,66.35
2022-08-19T00:45:36.653Z,66.38
2022-08-19T00:46:42.980Z,66.31
2022-08-19T00:47:46.374Z,66.35
2022-08-19T00:48:49.351Z,66.27
2022-08-19T00:49:55.962Z,66.30
2022-08-19T00:50:59.492Z,66.29
2022-08-19T00:52:12.622Z,66.27
2022-08-19T00:53:19.501Z,66.18
2022-08-19T00:54:29.911Z,66.26
2022-08-19T00:55:29.484Z,66.21
2022-08-19T00:56:34.400Z,66.20
2022-08-19T00:57:40.895Z,66.30
2022-08-19T00:58:44.680Z,66.29
2022-08-19T00:59:56.312Z,66.27
2022-08-19T01:00:56.556Z,66.26
2022-08-19T01:01:59.911Z,66.28
2022-08-19T01:03:05.043Z,66.29
2022-08-19T01:04:08.378Z,66.32
2022-08-19T01:05:15.506Z,66.29
2022-08-19T01:06:22.545Z,66.25
2022-08-19T01:07:25.619Z,66.19
2022-08-19T01:08:28.889Z,66.17
2022-08-19T01:09:32.106Z,66.16
2022-08-19T01:10:42.898Z,66.13
2022-08-19T01:11:46.795Z,66.12
2022-08-19T01:12:50.826Z,66.12
2022-08-19T01:13:54.763Z,66.08
2022-08-19T01:14:59.357Z,66.09
2022-08-19T01:16:05.962Z,66.19
2022-08-19T01:17:11.801Z,66.29
2022-08-19T01:18:17.309Z,66.39
2022-08-19T01:19:26.931Z,66.43
2022-08-19T01:20:31.157Z,66.51
2022-08-19T01:21:44.183Z,66.65
2022-08-19T01:22:53.940Z,66.65
2022-08-19T01:23:57.436Z,66.80
2022-08-19T01:25:01.404Z,66.80
2022-08-19T01:26:05.023Z,66.84
2022-08-19T01:27:08.333Z,66.86
2022-08-19T01:28:19.836Z,66.91
2022-08-19T01:29:25.031Z,66.96
2022-08-19T01:30:34.032Z,67.01
2022-08-19T01:31:39.211Z,67.06
2022-08-19T01:32:43.672Z,67.12
2022-08-19T01:33:47.254Z,67.19
2022-08-19T01:34:50.375Z,67.18
2022-08-19T01:36:11.294Z,67.18
2022-08-19T01:37:15.759Z,67.13
2022-08-19T01:38:26.538Z,67.12
2022-08-19T01:39:30.206Z,67.25
2022-08-19T01:40:36.979Z,67.27
2022-08-19T01:41:40.293Z,67.07
2022-08-19T01:42:44.318Z,66.99
2022-08-19T01:44:17.121Z,66.92
2022-08-19T01:44:52.412Z,66.89
2022-08-19T01:45:55.403Z,66.79
2022-08-19T01:46:58.603Z,66.80
2022-08-19T01:48:02.426Z,66.85
2022-08-19T01:49:07.814Z,66.96
2022-08-19T01:50:12.238Z,67.00
2022-08-19T01:51:15.664Z,67.07
2022-08-19T01:52:18.863Z,67.20
2022-08-19T01:53:22.047Z,67.32
2022-08-19T01:54:27.935Z,67.40
2022-08-19T01:55:31.636Z,67.43
2022-08-19T01:56:35.007Z,67.42
2022-08-19T01:57:39.936Z,67.38
2022-08-19T01:58:46.899Z,67.45
2022-08-19T01:59:50.713Z,67.46
2022-08-19T02:01:09.053Z,67.47
2022-08-19T02:02:12.244Z,67.41
2022-08-19T02:03:17.138Z,67.33
2022-08-19T02:04:21.312Z,67.28
2022-08-19T02:05:24.790Z,67.25
2022-08-19T02:06:28.804Z,67.17
2022-08-19T02:07:33.228Z,67.19
2022-08-19T02:08:39.092Z,67.18
2022-08-19T02:09:42.399Z,67.15
2022-08-19T02:10:45.496Z,67.01
2022-08-19T02:11:48.483Z,66.82
2022-08-19T02:12:52.127Z,66.79
2022-08-19T02:13:56.245Z,66.74
2022-08-19T02:15:00.050Z,66.79
2022-08-19T02:16:04.224Z,66.72
2022-08-19T02:17:07.719Z,66.68
2022-08-19T02:18:11.101Z,66.65
2022-08-19T02:19:14.108Z,66.66
2022-08-19T02:20:17.913Z,66.76
2022-08-19T02:21:23.338Z,66.93
2022-08-19T02:22:26.463Z,66.97
2022-08-19T02:23:30.092Z,66.89
2022-08-19T02:24:33.233Z,67.01
2022-08-19T02:25:36.328Z,67.10
2022-08-19T02:26:40.077Z,67.17
2022-08-19T02:27:44.489Z,67.15
2022-08-19T02:28:48.940Z,67.14
2022-08-19T02:29:52.525Z,67.08
2022-08-19T02:30:56.479Z,67.10
2022-08-19T02:31:59.860Z,67.02
2022-08-19T02:33:02.972Z,66.98
2022-08-19T02:34:06.187Z,67.03
2022-08-19T02:35:12.687Z,67.13
2022-08-19T02:36:21.072Z,67.22
2022-08-19T02:37:41.123Z,67.32
2022-08-19T02:38:47.669Z,67.39
2022-08-19T02:39:50.174Z,67.42
2022-08-19T02:40:59.982Z,67.40
2022-08-19T02:42:03.124Z,67.36
2022-08-19T02:43:08.364Z,67.23
2022-08-19T02:44:29.132Z,67.21
2022-08-19T02:45:17.425Z,67.17
2022-08-19T02:46:27.643Z,67.06
2022-08-19T02:47:30.802Z,66.96
2022-08-19T02:48:34.114Z,66.86
2022-08-19T02:49:37.464Z,66.65
2022-08-19T02:50:40.850Z,66.45
2022-08-19T02:51:46.748Z,66.48
2022-08-19T02:52:49.932Z,66.48
2022-08-19T02:53:53.023Z,66.50
2022-08-19T02:54:57.862Z,66.54
2022-08-19T02:56:00.990Z,66.63
2022-08-19T02:57:04.658Z,66.81
2022-08-19T02:58:08.282Z,66.87
2022-08-19T02:59:12.121Z,66.92
2022-08-19T03:00:16.868Z,66.96
2022-08-19T03:01:28.334Z,67.01
2022-08-19T03:02:32.753Z,66.98
2022-08-19T03:03:35.750Z,67.17
2022-08-19T03:04:38.845Z,67.33
2022-08-19T03:05:46.922Z,67.50
2022-08-19T03:06:48.442Z,67.61
2022-08-19T03:07:51.543Z,67.73
2022-08-19T03:08:55.835Z,67.82
2022-08-19T03:09:59.280Z,67.78
2022-08-19T03:11:02.772Z,67.78
2022-08-19T03:12:06.487Z,67.75
2022-08-19T03:13:09.612Z,67.73
2022-08-19T03:14:13.807Z,67.67
2022-08-19T03:15:16.928Z,67.62
2022-08-19T03:16:24.434Z,67.54
2022-08-19T03:17:27.548Z,67.47
2022-08-19T03:18:30.638Z,67.42
2022-08-19T03:19:33.798Z,67.43
2022-08-19T03:20:45.863Z,67.44
2022-08-19T03:21:49.798Z,67.45
2022-08-19T03:22:54.227Z,67.37
2022-08-19T03:23:59.675Z,67.40
2022-08-19T03:25:03.331Z,67.46
2022-08-19T03:26:16.711Z,67.48
2022-08-19T03:27:12.741Z,67.60
2022-08-19T03:28:15.960Z,67.78
2022-08-19T03:29:25.887Z,67.98
2022-08-19T03:30:25.213Z,68.05
2022-08-19T03:31:44.014Z,68.17
2022-08-19T03:32:33.434Z,68.22
2022-08-19T03:33:37.262Z,68.17
2022-08-19T03:34:40.418Z,68.26
2022-08-19T03:35:43.609Z,68.30
2022-08-19T03:36:47.420Z,68.32
2022-08-19T03:37:51.359Z,68.41
2022-08-19T03:38:59.668Z,68.46
2022-08-19T03:40:04.394Z,68.46
2022-08-19T03:41:10.826Z,68.51
2022-08-19T03:42:38.237Z,68.62
2022-08-19T03:43:19.573Z,68.71
2022-08-19T03:44:23.798Z,68.77
2022-08-19T03:45:27.978Z,68.83
2022-08-19T03:46:33.942Z,68.85
2022-08-19T03:47:38.234Z,68.87
2022-08-19T03:48:43.065Z,68.91
2022-08-19T03:49:46.733Z,68.91
2022-08-19T03:50:50.651Z,68.79
2022-08-19T03:51:54.815Z,68.67
2022-08-19T03:52:57.808Z,68.64
2022-08-19T03:54:03.589Z,68.62
2022-08-19T03:55:07.449Z,68.67
2022-08-19T03:56:11.957Z,68.73
2022-08-19T03:57:15.080Z,68.75
2022-08-19T03:58:18.208Z,68.80
2022-08-19T03:59:25.611Z,68.86
2022-08-19T04:00:29.651Z,68.89
2022-08-19T04:01:35.470Z,68.88
2022-08-19T04:02:37.790Z,68.87
2022-08-19T04:03:41.527Z,68.86
2022-08-19T04:04:45.039Z,68.80
2022-08-19T04:05:48.459Z,68.69
2022-08-19T04:06:52.461Z,68.66
2022-08-19T04:07:57.322Z,68.60
2022-08-19T04:09:02.915Z,68.50
2022-08-19T04:10:06.626Z,68.44
2022-08-19T04:11:14.826Z,68.34
2022-08-19T04:12:18.780Z,68.27
2022-08-19T04:13:22.491Z,68.13
2022-08-19T04:14:31.958Z,68.03
2022-08-19T04:15:38.695Z,67.95
2022-08-19T04:16:44.860Z,67.93
2022-08-19T04:17:48.113Z,67.89
2022-08-19T04:18:51.530Z,67.91
2022-08-19T04:19:54.654Z,67.89
2022-08-19T04:20:58.083Z,67.88
2022-08-19T04:22:01.261Z,67.80
2022-08-19T04:23:04.346Z,67.73
2022-08-19T04:24:09.599Z,67.61
2022-08-19T04:25:12.845Z,67.50
2022-08-19T04:26:22.411Z,67.33
2022-08-19T04:27:25.521Z,67.21
2022-08-19T04:28:29.280Z,67.07
2022-08-19T04:29:33.554Z,66.98
2022-08-19T04:30:44.500Z,66.88
2022-08-19T04:31:47.738Z,66.84
2022-08-19T04:32:51.627Z,66.74
2022-08-19T04:33:57.286Z,66.68
2022-08-19T04:35:03.192Z,66.58
2022-08-19T04:36:06.038Z,66.56
2022-08-19T04:37:13.088Z,66.51
2022-08-19T04:38:18.318Z,66.44
2022-08-19T04:39:26.288Z,66.36
2022-08-19T04:40:48.039Z,66.38
2022-08-19T04:42:09.442Z,66.26
2022-08-19T04:43:14.176Z,66.06
2022-08-19T04:44:19.978Z,65.97
2022-08-19T04:45:23.327Z,65.92
2022-08-19T04:46:39.663Z,65.84
2022-08-19T04:47:49.333Z,65.76
2022-08-19T04:48:43.456Z,65.70
2022-08-19T04:49:45.373Z,65.70
2022-08-19T04:50:49.061Z,65.65
2022-08-19T04:51:54.698Z,65.60
2022-08-19T04:52:57.870Z,65.59
2022-08-19T04:54:02.672Z,65.43
2022-08-19T04:55:06.998Z,65.26
2022-08-19T04:56:13.625Z,65.15
2022-08-19T04:57:16.844Z,65.08
2022-08-19T04:58:19.961Z,65.05
2022-08-19T04:59:23.271Z,64.85
2022-08-19T05:00:27.214Z,64.73
2022-08-19T05:01:36.966Z,64.70
2022-08-19T05:02:40.237Z,64.65
2022-08-19T05:03:44.345Z,64.62
2022-08-19T05:04:48.867Z,64.58
2022-08-19T05:05:52.010Z,64.49
2022-08-19T05:06:56.959Z,64.47
2022-08-19T05:08:00.241Z,64.44
2022-08-19T05:09:06.450Z,64.41
2022-08-19T05:10:10.644Z,64.45
2022-08-19T05:11:28.786Z,64.42
2022-08-19T05:12:32.201Z,64.39
2022-08-19T05:13:35.381Z,64.48
2022-08-19T05:14:38.530Z,64.56
2022-08-19T05:15:41.737Z,64.59
2022-08-19T05:16:45.295Z,64.59
2022-08-19T05:17:50.151Z,64.57
2022-08-19T05:19:11.809Z,64.53
2022-08-19T05:20:34.155Z,64.51
2022-08-19T05:21:55.440Z,64.42
2022-08-19T05:22:58.549Z,64.41
2022-08-19T05:24:02.547Z,64.36
2022-08-19T05:25:12.979Z,64.33
2022-08-19T05:26:14.304Z,64.35
2022-08-19T05:27:17.392Z,64.33
2022-08-19T05:28:21.908Z,64.27
2022-08-19T05:29:27.445Z,64.21
2022-08-19T05:30:46.773Z,64.07
2022-08-19T05:31:41.872Z,63.96
2022-08-19T05:32:45.001Z,63.98
2022-08-19T05:33:48.398Z,63.89
2022-08-19T05:34:51.626Z,63.87
2022-08-19T05:35:54.746Z,63.93
2022-08-19T05:36:59.688Z,63.89
2022-08-19T05:38:02.899Z,63.90
2022-08-19T05:39:07.423Z,63.90
2022-08-19T05:40:14.045Z,63.88
2022-08-19T05:41:17.723Z,63.88
2022-08-19T05:42:22.526Z,63.80
2022-08-19T05:43:25.977Z,63.78
2022-08-19T05:44:34.051Z,63.72
2022-08-19T05:45:40.314Z,63.62
2022-08-19T05:46:47.659Z,63.75
2022-08-19T05:47:50.686Z,63.73
2022-08-19T05:48:55.878Z,63.77
2022-08-19T05:49:59.036Z,63.80
2022-08-19T05:51:07.279Z,63.83
2022-08-19T05:52:13.868Z,63.87
2022-08-19T05:53:17.999Z,63.86
2022-08-19T05:54:23.342Z,63.90
2022-08-19T05:55:26.783Z,63.90
2022-08-19T05:56:31.078Z,63.94
2022-08-19T05:57:34.109Z,63.95
2022-08-19T05:58:38.052Z,64.02
2022-08-19T05:59:42.437Z,63.99
2022-08-19T06:00:45.966Z,64.01
2022-08-19T06:01:55.319Z,64.00
2022-08-19T06:03:00.148Z,64.01
2022-08-19T06:04:03.965Z,63.92
2022-08-19T06:05:09.461Z,63.86
2022-08-19T06:06:15.376Z,63.87
2022-08-19T06:07:18.504Z,63.94
2022-08-19T06:08:33.602Z,63.92
2022-08-19T06:09:26.565Z,63.89
2022-08-19T06:10:30.533Z,63.87
2022-08-19T06:11:39.988Z,63.84
2022-08-19T06:12:43.236Z,63.80
2022-08-19T06:13:49.892Z,63.71
2022-08-19T06:15:00.840Z,63.69
2022-08-19T06:15:59.994Z,63.64
2022-08-19T06:17:06.861Z,63.68
2022-08-19T06:18:08.655Z,63.67
2022-08-19T06:19:17.778Z,63.62
2022-08-19T06:20:39.823Z,63.60
2022-08-19T06:21:28.125Z,63.56
2022-08-19T06:22:31.287Z,63.51
2022-08-19T06:23:35.359Z,63.60
2022-08-19T06:24:38.592Z,63.62
2022-08-19T06:25:41.736Z,63.58
2022-08-19T06:28:14.049Z,63.59
2022-08-19T06:28:56.422Z,63.56
2022-08-19T06:29:59.879Z,63.59
2022-08-19T06:31:07.932Z,63.64
2022-08-19T06:32:11.533Z,63.69
2022-08-19T06:33:14.810Z,63.77
2022-08-19T06:34:18.799Z,63.69
2022-08-19T06:35:23.260Z,63.73
2022-08-19T06:36:31.368Z,63.78
2022-08-19T06:37:34.641Z,63.91
2022-08-19T06:38:37.782Z,63.90
2022-08-19T06:39:44.135Z,63.85
2022-08-19T06:40:47.524Z,63.89
2022-08-19T06:41:55.606Z,63.91
2022-08-19T06:43:00.730Z,63.91
2022-08-19T06:44:05.493Z,63.83
2022-08-19T06:45:09.504Z,63.82
2022-08-19T06:46:16.130Z,63.74
2022-08-19T06:47:23.900Z,63.71
2022-08-19T06:48:27.352Z,63.81
2022-08-19T06:49:31.563Z,63.95
2022-08-19T06:50:36.790Z,63.87
2022-08-19T06:51:43.618Z,63.87
2022-08-19T06:52:48.406Z,63.97
2022-08-19T06:53:54.747Z,64.01
2022-08-19T06:54:59.878Z,64.04
2022-08-19T06:56:03.518Z,64.11
2022-08-19T06:57:07.325Z,63.98
2022-08-19T06:58:10.964Z,63.95
2022-08-19T06:59:20.709Z,63.94
2022-08-19T07:00:25.851Z,64.00
2022-08-19T07:01:29.267Z,64.01
2022-08-19T07:02:32.553Z,64.02
2022-08-19T07:03:37.408Z,63.99
2022-08-19T07:04:42.487Z,63.95
2022-08-19T07:05:46.220Z,63.88
2022-08-19T07:06:54.948Z,63.74
2022-08-19T07:07:58.174Z,63.53
2022-08-19T07:09:01.951Z,63.32
2022-08-19T07:10:07.881Z,63.35
2022-08-19T07:11:13.407Z,63.28
2022-08-19T07:12:17.668Z,63.21
2022-08-19T07:13:21.974Z,63.09
2022-08-19T07:14:28.318Z,62.99
2022-08-19T07:15:31.436Z,62.95
2022-08-19T07:16:35.234Z,62.86
2022-08-19T07:17:39.774Z,62.73
2022-08-19T07:18:43.854Z,62.53
2022-08-19T07:19:47.520Z,62.51
2022-08-19T07:20:51.182Z,62.54
2022-08-19T07:21:55.987Z,62.49
2022-08-19T07:23:00.164Z,62.45
2022-08-19T07:24:07.129Z,62.43
2022-08-19T07:25:10.748Z,62.41
2022-08-19T07:26:28.084Z,62.34
2022-08-19T07:27:33.576Z,62.37
2022-08-19T07:28:38.673Z,62.27
2022-08-19T07:29:43.644Z,62.21
2022-08-19T07:30:47.292Z,62.18
2022-08-19T07:31:51.701Z,62.02
2022-08-19T07:32:54.906Z,61.95
2022-08-19T07:33:57.888Z,61.97
2022-08-19T07:35:03.239Z,61.94
2022-08-19T07:36:08.371Z,61.81
2022-08-19T07:37:11.853Z,61.68
2022-08-19T07:38:16.356Z,61.71
2022-08-19T07:39:23.087Z,61.60
2022-08-19T07:40:27.352Z,61.51
2022-08-19T07:41:31.797Z,61.35
2022-08-19T07:42:35.013Z,61.23
2022-08-19T07:43:38.731Z,61.11
2022-08-19T07:44:42.698Z,60.98
2022-08-19T07:45:47.668Z,60.68
2022-08-19T07:46:54.064Z,60.38
2022-08-19T07:47:57.207Z,60.19
2022-08-19T07:49:00.846Z,60.16
2022-08-19T07:50:07.907Z,60.18
2022-08-19T07:51:12.170Z,60.08
2022-08-19T07:52:17.265Z,59.90
2022-08-19T07:53:20.464Z,59.71
2022-08-19T07:54:26.243Z,59.51
2022-08-19T07:55:42.684Z,59.21
2022-08-19T07:56:34.971Z,58.96
2022-08-19T07:57:39.284Z,58.69
2022-08-19T07:58:44.927Z,58.38
2022-08-19T07:59:48.260Z,58.20
2022-08-19T08:00:51.545Z,58.06
2022-08-19T08:01:55.537Z,57.99
2022-08-19T08:02:58.688Z,57.87
2022-08-19T08:04:20.407Z,57.73
2022-08-19T08:05:44.928Z,57.59
2022-08-19T08:07:06.318Z,57.57
2022-08-19T08:08:27.994Z,57.34
2022-08-19T08:09:34.734Z,57.34
2022-08-19T08:10:38.497Z,57.53
2022-08-19T08:13:09.523Z,57.29
2022-08-19T08:14:04.726Z,57.20
2022-08-19T08:15:12.483Z,57.15
2022-08-19T08:16:16.896Z,57.20
2022-08-19T08:17:31.167Z,57.21
2022-08-19T08:18:30.350Z,57.07
2022-08-19T08:19:33.734Z,56.99
2022-08-19T08:20:36.990Z,56.91
2022-08-19T08:23:04.931Z,56.70
2022-08-19T08:24:08.380Z,56.69
2022-08-19T08:25:15.077Z,56.85
2022-08-19T08:26:19.298Z,56.92
2022-08-19T08:27:23.696Z,56.92
2022-08-19T08:28:55.899Z,56.90
2022-08-19T08:29:58.998Z,56.95
2022-08-19T08:31:09.509Z,57.06
2022-08-19T08:32:14.982Z,57.14
2022-08-19T08:33:32.640Z,57.28
2022-08-19T08:34:25.680Z,57.40
2022-08-19T08:35:29.081Z,57.37
2022-08-19T08:36:34.091Z,57.39
2022-08-19T08:37:37.631Z,57.43
2022-08-19T08:38:42.575Z,57.28
2022-08-19T08:39:45.844Z,57.10
2022-08-19T08:40:56.401Z,56.97
2022-08-19T08:42:10.019Z,56.87
2022-08-19T08:43:34.660Z,56.57
2022-08-19T08:44:44.152Z,56.39
2022-08-19T08:45:53.620Z,56.24
2022-08-19T08:47:00.961Z,55.73
2022-08-19T08:48:07.862Z,55.64
2022-08-19T08:49:28.446Z,55.50
2022-08-19T08:50:36.663Z,55.44
2022-08-19T08:52:49.725Z,55.06
2022-08-19T08:53:55.969Z,54.98
2022-08-19T08:55:02.801Z,55.11
2022-08-19T08:56:11.301Z,55.19
2022-08-19T08:57:40.648Z,54.88
2022-08-19T08:58:43.871Z,54.49
2022-08-19T08:59:52.189Z,54.26
2022-08-19T09:00:55.377Z,54.13
2022-08-19T09:01:59.030Z,53.87
2022-08-19T09:03:04.189Z,53.69
2022-08-19T09:04:08.160Z,53.54
2022-08-19T09:05:16.822Z,53.48
2022-08-19T09:06:22.192Z,53.51
2022-08-19T09:07:47.689Z,53.47
2022-08-19T09:09:12.076Z,53.50
2022-08-19T09:10:28.852Z,53.39
2022-08-19T09:11:53.472Z,53.30
2022-08-19T09:13:22.698Z,52.99
2022-08-19T09:14:50.784Z,52.89
2022-08-19T09:16:04.798Z,52.77
2022-08-19T09:17:10.249Z,52.58
2022-08-19T09:18:18.157Z,52.10
2022-08-19T09:19:18.336Z,51.67
2022-08-19T09:20:26.236Z,51.13
2022-08-19T09:21:30.592Z,51.32
2022-08-19T09:22:37.442Z,50.75
2022-08-19T09:23:41.454Z,50.47
2022-08-19T09:24:46.154Z,50.15
2022-08-19T09:25:49.410Z,50.01
2022-08-19T09:26:53.311Z,49.96
2022-08-19T09:28:02.633Z,50.01
2022-08-19T09:29:04.598Z,49.72
2022-08-19T09:30:10.450Z,49.49
2022-08-19T09:31:15.198Z,49.42
2022-08-19T09:32:26.352Z,49.54
2022-08-19T09:33:23.731Z,49.54
2022-08-19T09:34:26.734Z,49.58
2022-08-19T09:35:31.207Z,49.50
2022-08-19T09:36:36.547Z,49.50
2022-08-19T09:37:40.474Z,49.32
2022-08-19T09:38:44.848Z,49.40
2022-08-19T09:39:48.387Z,49.27
2022-08-19T09:40:52.895Z,49.27
2022-08-19T09:41:56.103Z,49.20
2022-08-19T09:43:02.922Z,49.32
2022-08-19T09:44:07.935Z,49.20
2022-08-19T09:45:13.133Z,49.02
2022-08-19T09:46:19.480Z,48.79
2022-08-19T09:47:24.508Z,48.56
2022-08-19T09:48:27.756Z,48.52
2022-08-19T09:49:32.225Z,48.20
2022-08-19T09:50:37.823Z,48.14
2022-08-19T09:51:41.371Z,48.09
2022-08-19T09:52:55.432Z,48.05
2022-08-19T09:53:51.845Z,47.85
2022-08-19T09:54:56.108Z,47.71
2022-08-19T09:55:59.299Z,47.83
2022-08-19T09:57:04.706Z,48.17
2022-08-19T09:58:07.754Z,48.25
2022-08-19T09:59:12.483Z,48.33
2022-08-19T10:00:15.865Z,48.43
2022-08-19T10:01:21.838Z,48.56
2022-08-19T10:02:25.299Z,48.70
2022-08-19T10:03:31.454Z,48.69
2022-08-19T10:04:52.874Z,48.39
2022-08-19T10:05:58.029Z,48.47
2022-08-19T10:07:01.795Z,48.28
2022-08-19T10:08:04.813Z,48.38
2022-08-19T10:09:11.294Z,48.52
2022-08-19T10:10:16.106Z,48.22
2022-08-19T10:11:27.817Z,48.03
2022-08-19T10:12:26.092Z,47.93
2022-08-19T10:13:31.103Z,47.87
2022-08-19T10:14:35.031Z,47.77
2022-08-19T10:15:47.254Z,47.64
2022-08-19T10:16:45.663Z,47.57
2022-08-19T10:17:55.117Z,47.65
2022-08-19T10:18:58.924Z,47.52
2022-08-19T10:20:00.015Z,47.54
2022-08-19T10:21:09.657Z,47.39
2022-08-19T10:22:15.346Z,47.31
2022-08-19T10:23:21.331Z,47.33
2022-08-19T10:24:26.330Z,47.15
2022-08-19T10:25:34.344Z,47.24
2022-08-19T10:26:42.356Z,47.32
2022-08-19T10:27:51.322Z,47.17
2022-08-19T10:28:51.057Z,47.04
2022-08-19T10:29:54.337Z,47.05
2022-08-19T10:30:58.196Z,47.14
2022-08-19T10:32:03.528Z,47.52
2022-08-19T10:33:11.095Z,47.58
2022-08-19T10:34:17.559Z,47.57
2022-08-19T10:35:21.808Z,47.19
2022-08-19T10:36:25.453Z,47.01
2022-08-19T10:37:31.484Z,46.84
2022-08-19T10:38:37.059Z,46.81
2022-08-19T10:39:43.070Z,46.71
2022-08-19T10:40:45.632Z,46.71
2022-08-19T10:41:48.747Z,46.62
2022-08-19T10:42:51.714Z,46.52
2022-08-19T10:43:58.378Z,46.67
2022-08-19T10:45:06.393Z,46.58
2022-08-19T10:46:14.072Z,46.79
2022-08-19T10:47:25.033Z,47.06
2022-08-19T10:48:22.922Z,47.21
2022-08-19T10:49:26.019Z,47.09
2022-08-19T10:50:49.750Z,47.06
2022-08-19T10:52:11.386Z,47.13
2022-08-19T10:53:16.524Z,47.26
2022-08-19T10:54:31.129Z,47.46
2022-08-19T10:55:43.212Z,47.35
2022-08-19T10:56:53.170Z,47.34
2022-08-19T10:58:03.647Z,47.26
2022-08-19T10:59:03.407Z,47.12
2022-08-19T11:00:07.512Z,46.92
2022-08-19T11:01:10.583Z,46.80
2022-08-19T11:02:13.786Z,46.70
2022-08-19T11:03:16.964Z,46.60
2022-08-19T11:04:20.660Z,46.52
2022-08-19T11:05:24.437Z,46.52
2022-08-19T11:06:27.965Z,46.47
2022-08-19T11:07:31.417Z,46.54
2022-08-19T11:08:37.947Z,46.66
2022-08-19T11:09:42.786Z,46.70
2022-08-19T11:10:48.032Z,46.57
2022-08-19T11:11:51.891Z,46.63
2022-08-19T11:12:55.818Z,46.66
2022-08-19T11:13:59.202Z,46.60
2022-08-19T11:15:02.491Z,46.43
2022-08-19T11:16:13.609Z,46.32
2022-08-19T11:17:17.155Z,46.14
2022-08-19T11:18:20.091Z,46.12
2022-08-19T11:19:24.167Z,46.03
2022-08-19T11:20:27.917Z,45.98
2022-08-19T11:21:34.134Z,45.93
2022-08-19T11:22:41.546Z,45.91
2022-08-19T11:23:42.470Z,45.94
2022-08-19T11:24:45.696Z,46.00
2022-08-19T11:25:50.063Z,45.97
2022-08-19T11:26:59.489Z,45.97
2022-08-19T11:28:03.016Z,45.81
2022-08-19T11:29:09.713Z,45.88
2022-08-19T11:30:14.384Z,46.01
2022-08-19T11:31:20.796Z,46.21
2022-08-19T11:32:23.945Z,46.40
2022-08-19T11:33:27.113Z,46.55
2022-08-19T11:34:31.451Z,46.71
2022-08-19T11:35:34.966Z,46.85
2022-08-19T11:36:41.066Z,46.89
2022-08-19T11:37:44.440Z,47.01
2022-08-19T11:38:49.209Z,47.19
2022-08-19T11:39:53.963Z,47.31
2022-08-19T11:40:59.753Z,47.47
2022-08-19T11:42:06.474Z,47.47
2022-08-19T11:43:09.837Z,47.44
2022-08-19T11:44:14.444Z,47.43
2022-08-19T11:45:17.752Z,47.45
2022-08-19T11:46:21.698Z,47.60
2022-08-19T11:47:24.900Z,47.70
2022-08-19T11:48:28.025Z,47.76
2022-08-19T11:49:31.247Z,47.72
2022-08-19T11:50:35.132Z,47.59
2022-08-19T11:51:38.236Z,47.55
2022-08-19T11:52:41.381Z,47.45
2022-08-19T11:53:44.915Z,47.38
2022-08-19T11:54:48.018Z,47.31
2022-08-19T11:55:54.328Z,47.38
2022-08-19T11:56:57.868Z,47.46
2022-08-19T11:58:01.898Z,47.64
2022-08-19T11:59:05.320Z,47.57
2022-08-19T12:00:11.108Z,47.61
2022-08-19T12:01:16.472Z,47.55
2022-08-19T12:02:19.681Z,47.58
2022-08-19T12:03:23.075Z,47.63
2022-08-19T12:04:26.242Z,47.68
2022-08-19T12:05:29.335Z,47.65
2022-08-19T12:06:34.722Z,47.53
2022-08-19T12:07:37.836Z,47.54
2022-08-19T12:08:42.732Z,47.43
2022-08-19T12:09:46.076Z,47.45
2022-08-19T12:10:51.464Z,47.46
2022-08-19T12:11:54.799Z,47.47
2022-08-19T12:12:59.000Z,47.30
2022-08-19T12:14:02.270Z,47.35
2022-08-19T12:15:06.276Z,47.34
2022-08-19T12:16:12.826Z,47.32
2022-08-19T12:17:15.976Z,47.43
2022-08-19T12:18:19.063Z,47.58
2022-08-19T12:19:22.856Z,47.64
2022-08-19T12:20:26.767Z,47.64
2022-08-19T12:21:32.015Z,47.63
2022-08-19T12:22:35.933Z,47.64
2022-08-19T12:23:40.230Z,47.62
2022-08-19T12:24:43.857Z,47.61
2022-08-19T12:25:50.771Z,47.65
2022-08-19T12:26:55.950Z,47.83
2022-08-19T12:28:01.649Z,47.80
2022-08-19T12:29:04.878Z,47.77
2022-08-19T12:30:11.511Z,47.77
2022-08-19T12:31:15.037Z,47.85
2022-08-19T12:32:18.213Z,48.06
2022-08-19T12:33:23.237Z,48.14
2022-08-19T12:34:26.618Z,48.06
2022-08-19T12:35:30.910Z,47.99
2022-08-19T12:36:35.062Z,47.96
2022-08-19T12:37:41.741Z,47.97
2022-08-19T12:38:45.251Z,47.92
2022-08-19T12:39:48.392Z,47.66
2022-08-19T12:40:57.099Z,47.53
2022-08-19T12:41:58.644Z,47.46
2022-08-19T12:43:01.937Z,47.47
2022-08-19T12:44:06.189Z,47.48
2022-08-19T12:45:13.284Z,47.52
2022-08-19T12:46:18.889Z,47.56
2022-08-19T12:47:22.263Z,47.60
2022-08-19T12:48:33.420Z,47.65
2022-08-19T12:49:53.867Z,47.67
2022-08-19T12:50:45.352Z,47.62
2022-08-19T12:51:48.451Z,47.60
2022-08-19T12:52:51.679Z,47.67
2022-08-19T12:53:54.762Z,47.65
2022-08-19T12:54:58.186Z,47.44
2022-08-19T12:56:01.384Z,47.17
2022-08-19T12:57:09.196Z,46.92
2022-08-19T12:58:12.928Z,46.82
2022-08-19T12:59:18.223Z,46.79
2022-08-19T13:00:23.897Z,46.75
2022-08-19T13:01:28.239Z,46.74
2022-08-19T13:02:32.685Z,47.02
2022-08-19T13:03:40.609Z,47.02
2022-08-19T13:04:43.695Z,47.04
2022-08-19T13:05:46.808Z,47.15
2022-08-19T13:06:50.475Z,47.43
2022-08-19T13:07:58.253Z,47.43
2022-08-19T13:09:01.515Z,47.53
2022-08-19T13:10:07.526Z,47.72
2022-08-19T13:11:13.976Z,47.80
2022-08-19T13:12:17.656Z,47.95
2022-08-19T13:13:20.852Z,47.95
2022-08-19T13:14:24.017Z,47.98
2022-08-19T13:15:28.838Z,48.00
2022-08-19T13:16:33.885Z,48.04
2022-08-19T13:17:38.482Z,47.98
2022-08-19T13:18:44.259Z,47.99
2022-08-19T13:19:48.364Z,48.05
2022-08-19T13:20:53.705Z,48.04
2022-08-19T13:22:00.333Z,48.09
2022-08-19T13:23:04.627Z,48.09
2022-08-19T13:24:08.239Z,48.21
2022-08-19T13:25:12.826Z,48.11
2022-08-19T13:26:17.395Z,48.11
2022-08-19T13:27:20.602Z,48.03
2022-08-19T13:28:29.092Z,48.05
2022-08-19T13:29:47.100Z,48.06
2022-08-19T13:31:08.860Z,47.98
2022-08-19T13:32:30.466Z,47.91
2022-08-19T13:33:34.115Z,47.94
2022-08-19T13:34:37.459Z,48.15
2022-08-19T13:36:56.719Z,48.50
2022-08-19T13:38:01.352Z,48.48
2022-08-19T13:39:07.889Z,48.56
2022-08-19T13:40:16.633Z,48.51
2022-08-19T13:41:19.867Z,48.29
2022-08-19T13:42:22.957Z,48.21
2022-08-19T13:43:27.985Z,48.13
2022-08-19T13:44:31.610Z,48.10
2022-08-19T13:45:37.358Z,48.07
2022-08-19T13:46:45.721Z,47.93
2022-08-19T13:47:51.022Z,47.74
2022-08-19T13:48:56.996Z,47.62
2022-08-19T13:50:01.312Z,47.48
2022-08-19T13:51:06.180Z,47.40
2022-08-19T13:52:09.403Z,46.99
2022-08-19T13:53:12.920Z,46.84
2022-08-19T13:54:16.087Z,46.54
2022-08-19T13:55:22.184Z,46.31
2022-08-19T13:56:26.597Z,46.19
2022-08-19T13:57:29.928Z,45.89
2022-08-19T13:58:33.097Z,45.78
2022-08-19T13:59:36.214Z,45.41
2022-08-19T14:00:42.762Z,44.97
2022-08-19T14:01:46.032Z,44.70
2022-08-19T14:02:52.290Z,44.28
2022-08-19T14:03:55.566Z,44.06
2022-08-19T14:04:59.366Z,44.00
2022-08-19T14:06:03.338Z,44.14
2022-08-19T14:07:06.461Z,44.29
2022-08-19T14:08:10.220Z,44.20
2022-08-19T14:09:13.563Z,44.15